Fecha, hora, temperatura, viento dirección y velocidad, humedad y presión.

  • 19-03-2019 23:00:00 | 15.40°C | Este |20.00 km/h | 78.00% | 1024.20 hPa
  • 19-03-2019 22:00:00 | 15.70°C | Este |18.00 km/h | 76.00% | 1023.40 hPa
  • 19-03-2019 21:00:00 | 15.80°C | Este |15.00 km/h | 75.00% | 1022.60 hPa
  • 19-03-2019 20:00:00 | 15.80°C | Este |14.00 km/h | 75.00% | 1021.70 hPa
  • 19-03-2019 19:00:00 | 17.30°C | Este |16.00 km/h | 70.00% | 1020.60 hPa
  • 19-03-2019 18:00:00 | 18.10°C | Sudeste |15.00 km/h | 68.00% | 1019.70 hPa
  • 19-03-2019 17:00:00 | 18.40°C | Sudeste |22.00 km/h | 66.00% | 1019.10 hPa
  • 19-03-2019 16:00:00 | 18.10°C | Sudeste |23.00 km/h | 66.00% | 1018.70 hPa
  • 19-03-2019 15:00:00 | 18.70°C | Sudeste |23.00 km/h | 64.00% | 1018.80 hPa
  • 19-03-2019 14:00:00 | 18.80°C | Sudeste |24.00 km/h | 67.00% | 1019.70 hPa
  • 19-03-2019 13:00:00 | 18.50°C | Sudeste |19.00 km/h | 66.00% | 1020.40 hPa
  • 19-03-2019 12:00:00 | 19.40°C | Sudeste |13.00 km/h | 57.00% | 1020.90 hPa
  • 19-03-2019 11:00:00 | 18.50°C | Nordeste |2.00 km/h | 60.00% | 1021.50 hPa
  • 19-03-2019 10:00:00 | 17.30°C | Oeste |3.00 km/h | 68.00% | 1021.70 hPa
  • 19-03-2019 09:00:00 | 15.70°C | Nordeste |5.00 km/h | 75.00% | 1022.00 hPa
  • 19-03-2019 08:00:00 | 14.60°C | Nordeste |7.00 km/h | 81.00% | 1021.70 hPa
  • 19-03-2019 07:00:00 | 14.30°C | Este |9.00 km/h | 83.00% | 1021.50 hPa
  • 19-03-2019 06:00:00 | 14.10°C | Este |8.00 km/h | 84.00% | 1021.40 hPa
  • 19-03-2019 05:00:00 | 14.40°C | Este |13.00 km/h | 85.00% | 1021.60 hPa
  • 19-03-2019 04:00:00 | 14.80°C | Este |11.00 km/h | 83.00% | 1022.00 hPa
  • 19-03-2019 03:00:00 | 15.20°C | Este |13.00 km/h | 81.00% | 1022.50 hPa
  • 19-03-2019 02:00:00 | 15.40°C | Este |13.00 km/h | 80.00% | 1023.00 hPa
  • 19-03-2019 01:00:00 | 15.40°C | Este |14.00 km/h | 80.00% | 1023.20 hPa
  • 19-03-2019 00:00:00 | 15.60°C | Este |13.00 km/h | 81.00% | 1023.40 hPa
    • diseño web asturias Información sobre el estado de las mareas, altura de la marejada, temperatura del agua y otros datos de Gijón en Asturias.

      Surf Gijón